createdAt,value
2019-06-27T00:00:59.137Z,7.87
2019-06-27T00:03:28.230Z,8.40
2019-06-27T00:20:03.669Z,10.27
2019-06-27T00:22:32.443Z,8.47
2019-06-27T00:25:01.317Z,9.30
2019-06-27T00:27:30.951Z,9.20
2019-06-27T00:29:59.962Z,9.93
2019-06-27T00:32:29.005Z,8.83
2019-06-27T00:34:58.040Z,4.60
2019-06-27T00:37:27.204Z,7.00
2019-06-27T00:39:56.403Z,6.30
2019-06-27T00:42:25.336Z,8.33
2019-06-27T00:44:54.455Z,7.43
2019-06-27T00:47:23.537Z,12.37
2019-06-27T00:49:52.625Z,9.27
2019-06-27T00:52:21.668Z,9.23
2019-06-27T00:54:51.569Z,8.97
2019-06-27T00:57:20.392Z,8.57
2019-06-27T00:59:49.213Z,8.03
2019-06-27T01:02:18.058Z,6.77
2019-06-27T01:04:47.038Z,9.90
2019-06-27T01:07:16.078Z,10.87
2019-06-27T01:09:44.882Z,12.07
2019-06-27T01:12:13.951Z,8.20
2019-06-27T01:14:43.012Z,9.33
2019-06-27T01:17:12.071Z,7.67
2019-06-27T01:19:41.368Z,10.67
2019-06-27T01:22:10.530Z,10.10
2019-06-27T01:24:40.212Z,8.70
2019-06-27T01:27:09.993Z,10.77
2019-06-27T01:29:39.905Z,11.30
2019-06-27T01:32:08.848Z,9.60
2019-06-27T01:34:38.572Z,6.63
2019-06-27T01:37:07.629Z,11.60
2019-06-27T01:39:36.790Z,13.03
2019-06-27T01:42:06.177Z,9.63
2019-06-27T01:44:41.245Z,11.70
2019-06-27T01:47:10.607Z,14.10
2019-06-27T01:49:39.519Z,8.07
2019-06-27T01:52:08.461Z,9.13
2019-06-27T01:54:37.517Z,9.47
2019-06-27T01:57:06.371Z,9.47
2019-06-27T01:59:35.297Z,12.10
2019-06-27T02:02:04.486Z,8.93
2019-06-27T02:04:33.469Z,11.63
2019-06-27T02:07:17.677Z,10.50
2019-06-27T02:09:46.583Z,11.10
2019-06-27T02:12:15.591Z,8.37
2019-06-27T02:14:44.478Z,8.93
2019-06-27T02:17:13.832Z,9.00
2019-06-27T02:19:42.924Z,9.87
2019-06-27T02:22:11.834Z,12.57
2019-06-27T02:24:40.810Z,9.83
2019-06-27T02:27:09.635Z,11.73
2019-06-27T02:29:38.866Z,13.87
2019-06-27T02:32:07.908Z,6.17
2019-06-27T02:34:36.750Z,11.60
2019-06-27T02:37:05.927Z,8.10
2019-06-27T02:39:35.001Z,17.97
2019-06-27T02:42:04.472Z,8.30
2019-06-27T02:44:33.379Z,10.13
2019-06-27T02:47:02.199Z,9.97
2019-06-27T02:49:30.974Z,13.00
2019-06-27T02:51:59.901Z,10.10
2019-06-27T02:54:28.774Z,8.70
2019-06-27T02:56:57.826Z,7.13
2019-06-27T02:59:26.678Z,8.13
2019-06-27T03:01:55.546Z,9.80
2019-06-27T03:04:24.687Z,10.43
2019-06-27T03:06:53.769Z,7.70
2019-06-27T03:09:22.688Z,7.83
2019-06-27T03:11:51.960Z,7.53
2019-06-27T03:14:20.881Z,6.30
2019-06-27T03:16:49.801Z,7.53
2019-06-27T03:19:18.991Z,11.67
2019-06-27T03:21:47.792Z,8.87
2019-06-27T03:24:16.643Z,7.80
2019-06-27T03:26:45.502Z,12.40
2019-06-27T03:29:14.338Z,8.23
2019-06-27T03:31:43.188Z,9.13
2019-06-27T03:34:12.110Z,14.83
2019-06-27T03:36:41.176Z,13.33
2019-06-27T03:39:10.099Z,10.10
2019-06-27T03:41:39.043Z,8.23
2019-06-27T03:44:08.254Z,10.13
2019-06-27T03:46:37.326Z,8.13
2019-06-27T03:49:06.205Z,8.17
2019-06-27T03:51:35.037Z,9.83
2019-06-27T03:54:04.020Z,7.23
2019-06-27T03:56:33.090Z,8.20
2019-06-27T03:59:12.112Z,10.27
2019-06-27T04:01:33.599Z,7.77
2019-06-27T04:04:02.507Z,11.33
2019-06-27T04:06:31.726Z,10.03
2019-06-27T04:09:00.838Z,6.87
2019-06-27T04:11:33.553Z,11.77
2019-06-27T04:14:02.417Z,9.07
2019-06-27T04:16:31.420Z,9.87
2019-06-27T04:19:00.470Z,8.73
2019-06-27T04:21:29.381Z,9.67
2019-06-27T04:23:58.260Z,11.13
2019-06-27T04:26:27.132Z,7.70
2019-06-27T04:28:56.253Z,10.00
2019-06-27T04:31:26.167Z,8.40
2019-06-27T04:33:54.954Z,7.93
2019-06-27T04:36:23.939Z,13.20
2019-06-27T04:38:53.170Z,7.87
2019-06-27T04:41:22.044Z,9.20
2019-06-27T04:43:51.011Z,9.33
2019-06-27T04:46:28.687Z,9.80
2019-06-27T04:48:57.601Z,10.13
2019-06-27T04:51:28.358Z,9.10
2019-06-27T04:53:57.389Z,9.27
2019-06-27T04:56:26.484Z,6.70
2019-06-27T04:58:55.264Z,9.33
2019-06-27T05:01:24.507Z,9.87
2019-06-27T05:03:53.423Z,8.10
2019-06-27T05:06:22.408Z,11.20
2019-06-27T05:08:51.750Z,7.50
2019-06-27T05:11:20.655Z,7.20
2019-06-27T05:13:50.035Z,8.53
2019-06-27T05:16:21.237Z,6.53
2019-06-27T05:18:50.477Z,7.17
2019-06-27T05:21:20.474Z,6.93
2019-06-27T05:23:49.591Z,12.53
2019-06-27T05:26:18.402Z,7.37
2019-06-27T05:28:47.198Z,6.37
2019-06-27T05:31:16.085Z,5.07
2019-06-27T05:33:44.929Z,7.80
2019-06-27T05:36:13.866Z,5.23
2019-06-27T05:38:42.675Z,7.07
2019-06-27T05:41:11.716Z,6.63
2019-06-27T05:43:40.837Z,9.70
2019-06-27T05:46:23.409Z,9.87
2019-06-27T05:48:52.727Z,14.03
2019-06-27T05:51:21.534Z,8.50
2019-06-27T05:53:50.632Z,9.13
2019-06-27T05:56:19.593Z,10.80
2019-06-27T05:58:51.730Z,10.93
2019-06-27T06:01:19.211Z,8.53
2019-06-27T06:03:48.187Z,9.00
2019-06-27T06:06:17.079Z,10.70
2019-06-27T06:08:46.147Z,9.67
2019-06-27T06:11:14.943Z,11.90
2019-06-27T06:13:43.869Z,9.63
2019-06-27T06:16:32.270Z,11.03
2019-06-27T06:19:01.169Z,7.77
2019-06-27T06:21:29.974Z,5.20
2019-06-27T06:23:59.059Z,10.37
2019-06-27T06:26:28.339Z,11.60
2019-06-27T06:28:57.256Z,10.20
2019-06-27T06:31:27.296Z,11.37
2019-06-27T06:33:56.082Z,13.80
2019-06-27T06:36:25.045Z,9.73
2019-06-27T06:38:53.953Z,10.77
2019-06-27T06:41:22.964Z,10.50
2019-06-27T06:43:57.616Z,11.40
2019-06-27T06:46:26.545Z,10.63
2019-06-27T06:48:55.363Z,6.57
2019-06-27T06:51:24.513Z,7.57
2019-06-27T06:53:53.305Z,7.00
2019-06-27T06:56:22.702Z,13.40
2019-06-27T06:58:51.713Z,9.17
2019-06-27T07:01:20.666Z,8.47
2019-06-27T07:03:49.503Z,8.63
2019-06-27T07:06:18.454Z,6.10
2019-06-27T07:08:47.276Z,8.07
2019-06-27T07:11:16.081Z,11.27
2019-06-27T07:13:48.246Z,9.10
2019-06-27T07:16:17.158Z,7.30
2019-06-27T07:18:46.187Z,7.93
2019-06-27T07:21:14.992Z,5.90
2019-06-27T07:23:43.805Z,8.37
2019-06-27T07:26:13.203Z,6.37
2019-06-27T07:28:41.980Z,9.13
2019-06-27T07:31:17.939Z,9.20
2019-06-27T07:33:42.190Z,11.30
2019-06-27T07:36:11.109Z,7.33
2019-06-27T07:38:40.054Z,6.63
2019-06-27T07:41:09.049Z,4.80
2019-06-27T07:43:37.833Z,6.60
2019-06-27T07:46:23.803Z,8.70
2019-06-27T07:48:37.881Z,5.00
2019-06-27T07:51:06.790Z,5.73
2019-06-27T07:53:35.631Z,6.97
2019-06-27T07:56:05.691Z,6.80
2019-06-27T07:58:34.529Z,7.37
2019-06-27T08:01:03.390Z,6.40
2019-06-27T08:03:32.613Z,7.00
2019-06-27T08:06:01.970Z,8.53
2019-06-27T08:08:31.185Z,7.40
2019-06-27T08:11:00.135Z,3.70
2019-06-27T08:13:30.999Z,5.67
2019-06-27T08:15:59.850Z,3.17
2019-06-27T08:18:28.743Z,2.37
2019-06-27T08:21:00.390Z,3.90
2019-06-27T08:23:41.044Z,3.23
2019-06-27T08:25:59.793Z,2.83
2019-06-27T08:28:28.861Z,3.67
2019-06-27T08:30:57.804Z,6.60
2019-06-27T08:33:26.668Z,3.47
2019-06-27T08:35:56.669Z,4.13
2019-06-27T08:38:26.185Z,6.40
2019-06-27T08:40:55.054Z,5.80
2019-06-27T08:43:24.001Z,4.00
2019-06-27T08:45:52.940Z,7.20
2019-06-27T08:48:22.217Z,3.70
2019-06-27T08:50:51.072Z,4.63
2019-06-27T08:53:20.048Z,5.87
2019-06-27T08:55:49.513Z,4.57
2019-06-27T08:58:18.325Z,4.13
2019-06-27T09:00:47.609Z,3.70
2019-06-27T09:03:17.134Z,3.60
2019-06-27T09:05:45.876Z,3.63
2019-06-27T09:08:14.692Z,3.87
2019-06-27T09:10:43.912Z,4.93
2019-06-27T09:22:09.403Z,2.83
2019-06-27T09:24:38.335Z,3.33
2019-06-27T09:27:07.188Z,3.93
2019-06-27T09:29:36.731Z,2.73
2019-06-27T09:32:05.727Z,4.23
2019-06-27T09:34:35.034Z,2.90
2019-06-27T09:37:04.057Z,4.10
2019-06-27T09:39:34.560Z,3.47
2019-06-27T09:42:03.635Z,7.63
2019-06-27T09:44:32.413Z,3.93
2019-06-27T09:47:02.664Z,3.07
2019-06-27T09:49:31.711Z,5.07
2019-06-27T09:52:00.669Z,5.67
2019-06-27T09:54:29.651Z,5.37
2019-06-27T09:56:58.728Z,4.03
2019-06-27T09:59:27.566Z,6.30
2019-06-27T10:01:56.448Z,2.67
2019-06-27T10:04:25.921Z,3.27
2019-06-27T10:06:55.096Z,2.63
2019-06-27T10:09:24.764Z,4.37
2019-06-27T10:11:53.675Z,1.62
2019-06-27T10:14:22.682Z,4.43
2019-06-27T10:16:51.642Z,2.73
2019-06-27T10:19:20.621Z,1.07
2019-06-27T10:21:49.649Z,5.47
2019-06-27T10:24:19.302Z,1.67
2019-06-27T10:26:48.572Z,1.67
2019-06-27T10:29:17.517Z,1.45
2019-06-27T10:31:46.834Z,3.47
2019-06-27T10:34:15.646Z,1.98
2019-06-27T10:36:44.562Z,4.03
2019-06-27T10:39:13.535Z,2.17
2019-06-27T10:41:42.521Z,3.77
2019-06-27T10:44:11.776Z,2.83
2019-06-27T10:46:41.883Z,3.95
2019-06-27T10:49:10.735Z,2.43
2019-06-27T10:51:39.693Z,3.90
2019-06-27T10:54:08.625Z,2.20
2019-06-27T10:56:39.963Z,3.80
2019-06-27T10:59:11.709Z,3.47
2019-06-27T11:01:42.507Z,3.08
2019-06-27T11:04:19.057Z,2.90
2019-06-27T11:06:49.517Z,7.53
2019-06-27T11:09:22.419Z,1.72
2019-06-27T11:11:53.035Z,2.87
2019-06-27T11:14:21.968Z,4.72
2019-06-27T11:16:50.761Z,3.20
2019-06-27T11:19:19.644Z,4.00
2019-06-27T11:21:50.660Z,3.77
2019-06-27T11:24:19.739Z,1.37
2019-06-27T11:26:49.378Z,4.97
2019-06-27T11:29:18.313Z,2.77
2019-06-27T11:31:48.976Z,3.80
2019-06-27T11:34:19.394Z,3.20
2019-06-27T11:36:48.303Z,1.30
2019-06-27T11:39:16.977Z,2.92
2019-06-27T11:41:45.930Z,2.00
2019-06-27T11:44:14.905Z,2.35
2019-06-27T11:46:44.768Z,2.62
2019-06-27T11:49:13.783Z,1.30
2019-06-27T11:51:42.820Z,2.42
2019-06-27T11:54:11.697Z,3.35
2019-06-27T11:56:40.724Z,2.05
2019-06-27T11:59:09.790Z,4.00
2019-06-27T12:01:39.013Z,3.77
2019-06-27T12:04:08.876Z,1.60
2019-06-27T12:06:37.781Z,1.62
2019-06-27T12:09:06.930Z,2.85
2019-06-27T12:11:36.951Z,2.60
2019-06-27T12:14:06.298Z,1.80
2019-06-27T12:16:35.135Z,2.65
2019-06-27T12:19:03.942Z,2.45
2019-06-27T12:21:32.803Z,1.62
2019-06-27T12:24:01.649Z,2.22
2019-06-27T12:26:32.154Z,3.70
2019-06-27T12:29:00.950Z,2.12
2019-06-27T12:31:29.905Z,2.85
2019-06-27T12:34:06.871Z,1.47
2019-06-27T12:36:29.419Z,3.10
2019-06-27T12:38:58.296Z,2.30
2019-06-27T12:41:27.164Z,2.10
2019-06-27T12:43:56.375Z,1.77
2019-06-27T12:46:25.310Z,2.17
2019-06-27T12:48:54.688Z,1.98
2019-06-27T12:51:23.766Z,4.08
2019-06-27T12:53:55.829Z,2.73
2019-06-27T12:56:23.951Z,4.95
2019-06-27T12:58:52.868Z,1.98
2019-06-27T13:01:21.712Z,3.05
2019-06-27T13:03:50.896Z,3.30
2019-06-27T13:06:20.198Z,2.90
2019-06-27T13:08:49.345Z,4.55
2019-06-27T13:11:18.451Z,2.65
2019-06-27T13:13:47.632Z,2.27
2019-06-27T13:16:17.219Z,3.45
2019-06-27T13:18:46.265Z,2.03
2019-06-27T13:21:15.107Z,3.87
2019-06-27T13:23:43.984Z,3.57
2019-06-27T13:26:12.838Z,1.87
2019-06-27T13:28:41.970Z,2.22
2019-06-27T13:31:10.790Z,4.37
2019-06-27T13:33:39.695Z,3.77
2019-06-27T13:36:08.491Z,3.62
2019-06-27T13:38:37.315Z,3.00
2019-06-27T13:41:06.170Z,4.30
2019-06-27T13:43:35.161Z,4.70
2019-06-27T13:46:04.084Z,4.05
2019-06-27T13:48:32.883Z,5.78
2019-06-27T13:51:01.753Z,1.77
2019-06-27T13:53:30.606Z,3.33
2019-06-27T13:55:59.458Z,6.97
2019-06-27T13:58:28.480Z,4.17
2019-06-27T14:00:57.546Z,7.12
2019-06-27T14:03:26.379Z,3.70
2019-06-27T14:05:55.706Z,5.50
2019-06-27T14:08:26.320Z,5.00
2019-06-27T14:10:55.290Z,3.93
2019-06-27T14:13:24.286Z,3.35
2019-06-27T14:15:53.325Z,3.00
2019-06-27T14:18:22.343Z,3.87
2019-06-27T14:20:51.919Z,3.33
2019-06-27T14:23:21.164Z,3.50
2019-06-27T14:25:50.141Z,2.90
2019-06-27T14:28:19.067Z,5.08
2019-06-27T14:30:48.432Z,5.40
2019-06-27T14:33:17.304Z,2.00
2019-06-27T14:35:46.295Z,4.80
2019-06-27T14:38:15.190Z,3.63
2019-06-27T14:40:45.276Z,3.60
2019-06-27T14:43:14.170Z,5.20
2019-06-27T14:45:43.134Z,4.20
2019-06-27T14:48:12.028Z,6.87
2019-06-27T14:50:40.828Z,7.40
2019-06-27T14:53:09.655Z,6.23
2019-06-27T14:55:38.897Z,5.83
2019-06-27T14:58:07.949Z,2.67
2019-06-27T15:00:36.963Z,7.40
2019-06-27T15:03:06.007Z,6.93
2019-06-27T15:05:34.987Z,6.20
2019-06-27T15:08:04.006Z,4.47
2019-06-27T15:10:33.313Z,6.70
2019-06-27T15:13:02.371Z,7.40
2019-06-27T15:15:35.169Z,5.30
2019-06-27T15:18:04.016Z,5.35
2019-06-27T15:20:32.968Z,5.47
2019-06-27T15:23:01.781Z,3.42
2019-06-27T15:25:30.989Z,5.37
2019-06-27T15:28:00.026Z,5.10
2019-06-27T15:30:29.302Z,4.90
2019-06-27T15:32:58.111Z,5.47
2019-06-27T15:35:27.230Z,7.03
2019-06-27T15:37:56.205Z,5.90
2019-06-27T15:40:25.569Z,7.90
2019-06-27T15:42:54.391Z,5.28
2019-06-27T15:45:23.858Z,6.50
2019-06-27T15:47:52.715Z,5.03
2019-06-27T15:50:21.641Z,4.12
2019-06-27T15:52:50.482Z,6.37
2019-06-27T15:55:19.547Z,5.20
2019-06-27T15:57:48.451Z,5.03
2019-06-27T16:00:17.498Z,5.92
2019-06-27T16:02:46.450Z,7.10
2019-06-27T16:05:16.283Z,6.45
2019-06-27T16:07:45.248Z,6.10
2019-06-27T16:10:15.122Z,5.00
2019-06-27T16:12:44.105Z,7.15
2019-06-27T16:15:14.011Z,6.67
2019-06-27T16:17:42.870Z,5.65
2019-06-27T16:20:12.378Z,4.83
2019-06-27T16:22:41.353Z,8.08
2019-06-27T16:25:10.945Z,7.00
2019-06-27T16:27:39.946Z,4.35
2019-06-27T16:30:11.506Z,4.55
2019-06-27T16:32:40.379Z,7.05
2019-06-27T16:35:09.496Z,5.43
2019-06-27T16:37:38.515Z,5.17
2019-06-27T16:40:08.896Z,7.60
2019-06-27T16:42:37.867Z,4.75
2019-06-27T16:45:06.957Z,9.63
2019-06-27T16:47:35.915Z,3.58
2019-06-27T16:50:05.851Z,4.80
2019-06-27T16:52:34.803Z,5.00
2019-06-27T16:55:03.946Z,6.17
2019-06-27T16:57:32.840Z,4.80
2019-06-27T17:00:01.910Z,3.35
2019-06-27T17:02:30.757Z,3.70
2019-06-27T17:04:59.672Z,5.53
2019-06-27T17:07:28.502Z,5.25
2019-06-27T17:09:57.691Z,3.97
2019-06-27T17:12:26.726Z,4.37
2019-06-27T17:14:55.792Z,5.83
2019-06-27T17:17:24.705Z,5.00
2019-06-27T17:22:42.109Z,3.70
2019-06-27T17:25:11.320Z,5.50
2019-06-27T17:27:41.629Z,5.53
2019-06-27T17:30:13.621Z,4.60
2019-06-27T17:32:42.508Z,4.07
2019-06-27T17:35:11.981Z,5.77
2019-06-27T17:37:41.020Z,5.20
2019-06-27T17:40:10.602Z,4.97
2019-06-27T17:42:40.619Z,4.30
2019-06-27T17:45:09.756Z,6.80
2019-06-27T17:47:38.759Z,5.80
2019-06-27T17:50:07.779Z,4.77
2019-06-27T17:52:37.092Z,3.10
2019-06-27T17:55:06.331Z,4.78
2019-06-27T17:57:35.340Z,4.63
2019-06-27T18:00:23.079Z,6.63
2019-06-27T18:05:48.724Z,3.87
2019-06-27T18:08:18.098Z,9.23
2019-06-27T18:10:47.020Z,5.97
2019-06-27T18:13:19.101Z,12.07
2019-06-27T18:15:48.625Z,7.20
2019-06-27T18:18:18.777Z,7.90
2019-06-27T18:20:50.954Z,5.37
2019-06-27T18:23:20.096Z,6.30
2019-06-27T18:26:16.112Z,7.07
2019-06-27T18:28:49.008Z,6.23
2019-06-27T18:31:21.273Z,5.93
2019-06-27T18:33:54.205Z,5.23
2019-06-27T18:36:23.283Z,6.33
2019-06-27T18:39:19.458Z,7.70
2019-06-27T18:41:47.897Z,10.00
2019-06-27T18:47:59.588Z,6.03
2019-06-27T18:50:29.145Z,6.30
2019-06-27T19:02:44.429Z,6.23
2019-06-27T19:05:17.363Z,7.13
2019-06-27T19:07:56.472Z,5.47
2019-06-27T19:10:25.817Z,5.47
2019-06-27T19:13:20.907Z,6.23
2019-06-27T19:17:06.516Z,4.33
2019-06-27T19:19:35.232Z,4.03
2019-06-27T19:22:27.050Z,6.37
2019-06-27T19:25:11.119Z,8.60
2019-06-27T19:27:46.091Z,6.43
2019-06-27T19:30:20.859Z,7.07
2019-06-27T19:32:49.800Z,9.83
2019-06-27T19:35:28.950Z,7.93
2019-06-27T19:38:02.614Z,7.33
2019-06-27T19:40:30.885Z,5.43
2019-06-27T19:43:00.230Z,8.60
2019-06-27T19:45:30.553Z,6.87
2019-06-27T19:47:59.691Z,7.93
2019-06-27T19:50:29.756Z,7.77
2019-06-27T19:53:02.171Z,8.70
2019-06-27T19:55:31.442Z,6.47
2019-06-27T19:58:01.382Z,13.27
2019-06-27T20:00:30.567Z,4.43
2019-06-27T20:03:00.553Z,5.47
2019-06-27T20:05:54.892Z,7.53
2019-06-27T20:08:25.243Z,7.23
2019-06-27T20:10:57.821Z,6.13
2019-06-27T20:13:26.903Z,8.43
2019-06-27T20:16:00.541Z,9.40
2019-06-27T20:18:29.874Z,9.33
2019-06-27T20:20:58.809Z,6.03
2019-06-27T20:23:27.845Z,7.03
2019-06-27T20:25:58.013Z,7.13
2019-06-27T20:28:27.610Z,8.00
2019-06-27T20:31:16.246Z,10.13
2019-06-27T20:37:14.432Z,6.77
2019-06-27T20:39:45.265Z,5.23
2019-06-27T20:42:15.877Z,5.73
2019-06-27T20:44:44.968Z,7.93
2019-06-27T20:47:14.114Z,5.17
2019-06-27T20:49:43.016Z,7.87
2019-06-27T20:52:12.536Z,7.67
2019-06-27T20:54:42.429Z,7.53
2019-06-27T20:57:12.217Z,4.27
2019-06-27T20:59:41.619Z,5.67
2019-06-27T21:02:10.772Z,5.20
2019-06-27T21:04:39.645Z,7.13
2019-06-27T21:07:09.958Z,3.77
2019-06-27T21:09:39.220Z,4.07
2019-06-27T21:12:08.490Z,7.10
2019-06-27T21:14:37.560Z,7.07
2019-06-27T21:17:06.810Z,7.53
2019-06-27T21:19:37.148Z,4.90
2019-06-27T21:22:06.112Z,6.43
2019-06-27T21:24:35.062Z,6.60
2019-06-27T21:27:04.844Z,7.23
2019-06-27T21:29:33.833Z,8.67
2019-06-27T21:32:03.143Z,5.70
2019-06-27T21:35:27.319Z,7.30
2019-06-27T21:37:56.243Z,6.33
2019-06-27T21:40:25.242Z,7.20
2019-06-27T21:42:54.201Z,6.33
2019-06-27T21:45:23.459Z,6.13
2019-06-27T21:47:52.992Z,5.50
2019-06-27T21:50:23.989Z,5.00
2019-06-27T21:52:54.575Z,8.33
2019-06-27T21:55:23.389Z,5.03
2019-06-27T21:57:52.297Z,5.67
2019-06-27T22:00:22.295Z,4.50
2019-06-27T22:02:51.299Z,4.30
2019-06-27T22:05:21.334Z,6.10
2019-06-27T22:07:53.420Z,7.90
2019-06-27T22:10:21.810Z,5.80
2019-06-27T22:12:50.889Z,5.93
2019-06-27T22:15:20.491Z,6.57
2019-06-27T22:17:49.584Z,4.37
2019-06-27T22:20:19.504Z,8.90
2019-06-27T22:22:48.517Z,8.33
2019-06-27T22:25:18.506Z,7.17
2019-06-27T22:27:49.533Z,10.50
2019-06-27T22:30:18.537Z,4.60
2019-06-27T22:32:47.602Z,8.07
2019-06-27T22:35:17.888Z,7.63
2019-06-27T22:38:04.557Z,6.23
2019-06-27T22:40:51.338Z,5.50
2019-06-27T22:43:38.203Z,4.67
2019-06-27T22:46:25.177Z,5.83
2019-06-27T22:48:53.685Z,4.40
2019-06-27T22:51:41.313Z,5.17
2019-06-27T22:54:11.637Z,5.13
2019-06-27T22:56:40.564Z,6.40
2019-06-27T22:59:09.461Z,7.83
2019-06-27T23:01:38.605Z,8.10
2019-06-27T23:04:07.449Z,5.03
2019-06-27T23:06:37.517Z,4.63
2019-06-27T23:09:06.704Z,5.80
2019-06-27T23:11:35.654Z,6.40
2019-06-27T23:14:04.680Z,5.77
2019-06-27T23:16:33.676Z,6.60
2019-06-27T23:19:02.822Z,6.17
2019-06-27T23:21:31.696Z,6.27
2019-06-27T23:24:00.914Z,8.60
2019-06-27T23:26:29.932Z,6.20
2019-06-27T23:28:58.962Z,6.37
2019-06-27T23:31:27.975Z,5.20
2019-06-27T23:33:57.009Z,10.13
2019-06-27T23:36:26.127Z,4.73
2019-06-27T23:38:55.049Z,6.17
2019-06-27T23:41:23.971Z,7.43
2019-06-27T23:43:52.895Z,5.50
2019-06-27T23:46:41.602Z,5.03
2019-06-27T23:49:10.713Z,6.03
2019-06-27T23:51:40.241Z,4.60
2019-06-27T23:54:09.631Z,4.80
2019-06-27T23:56:39.580Z,6.10
2019-06-27T23:59:08.625Z,5.43
